Time;durP1;ratioP1;P1;durP2;ratioP2;P2;SDS_P1;SDS_P2;PMS_P1;PMS_P2;Temp;Humidity;BMP_temperature;BMP_pressure;BME280_temperature;BME280_humidity;BME280_pressure;Samples;Min_cycle;Max_cycle;Signal;HPM_P1;HPM_P2
2023/07/15 00:00:18;;;;;;;5.53;3.63;;;;;;;19.93;89.10;100300.91;5069023;28;20032;-90
2023/07/15 00:02:45;;;;;;;5.82;3.75;;;;;;;20.01;87.45;100294.53;5081384;28;20056;-91
2023/07/15 00:05:28;;;;;;;5.95;3.88;;;;;;;20.06;86.38;100293.16;5069756;28;20040;-92
2023/07/15 00:07:53;;;;;;;5.60;3.83;;;;;;;20.14;86.33;100288.81;5068632;28;20029;-92
2023/07/15 00:10:21;;;;;;;4.40;3.30;;;;;;;20.16;84.88;100294.03;5066285;28;20366;-91
2023/07/15 00:12:47;;;;;;;9.20;3.60;;;;;;;20.16;85.51;100282.69;5064173;28;20043;-91
2023/07/15 00:15:13;;;;;;;9.23;3.83;;;;;;;20.12;84.76;100279.94;5084678;28;20024;-91
2023/07/15 00:17:39;;;;;;;7.78;3.17;;;;;;;20.13;85.13;100280.75;5066902;28;20114;-91
2023/07/15 00:20:07;;;;;;;7.50;3.78;;;;;;;20.16;84.39;100274.16;5068572;28;20020;-92
2023/07/15 00:22:36;;;;;;;6.60;3.45;;;;;;;20.16;84.27;100274.94;5069885;28;20031;-93
2023/07/15 00:25:05;;;;;;;5.10;3.08;;;;;;;20.20;84.20;100266.31;5070877;28;20063;-92
2023/07/15 00:27:31;;;;;;;6.72;3.40;;;;;;;20.19;83.87;100264.69;5067609;28;20025;-91
2023/07/15 00:29:56;;;;;;;5.28;3.50;;;;;;;20.17;83.61;100253.00;5068965;28;20028;-92
2023/07/15 00:32:21;;;;;;;6.05;2.85;;;;;;;20.16;84.16;100255.06;5067893;28;20033;-92
2023/07/15 00:34:47;;;;;;;11.05;3.83;;;;;;;20.18;83.90;100254.59;5068818;28;20111;-92
2023/07/15 00:37:12;;;;;;;5.90;3.80;;;;;;;20.20;83.16;100260.63;5067628;28;20036;-92
2023/07/15 00:39:40;;;;;;;6.85;3.70;;;;;;;20.20;82.75;100257.78;5069606;28;20083;-91
2023/07/15 00:42:09;;;;;;;4.53;3.28;;;;;;;20.22;83.40;100258.91;5076997;28;20032;-92
2023/07/15 00:44:34;;;;;;;3.58;2.78;;;;;;;20.26;82.03;100250.22;5075972;28;20110;-92
2023/07/15 00:47:12;;;;;;;5.05;3.45;;;;;;;20.26;81.89;100253.88;5067410;28;20024;-92
2023/07/15 00:49:38;;;;;;;7.32;3.80;;;;;;;20.24;81.42;100250.72;5064827;28;20036;-93
2023/07/15 00:52:09;;;;;;;9.45;3.42;;;;;;;20.30;82.15;100242.38;5063569;28;20043;-92
2023/07/15 00:54:55;;;;;;;9.10;3.50;;;;;;;20.26;82.44;100247.38;5081196;28;20056;-92
2023/07/15 00:57:21;;;;;;;4.55;3.28;;;;;;;20.30;81.32;100240.34;5059638;28;20511;-93
2023/07/15 00:59:48;;;;;;;7.97;3.03;;;;;;;20.27;82.15;100238.41;5063340;28;20400;-91
2023/07/15 01:02:15;;;;;;;7.05;3.15;;;;;;;20.28;81.46;100236.34;5068062;28;20477;-93
2023/07/15 01:04:41;;;;;;;7.70;3.72;;;;;;;20.30;81.55;100231.00;5067119;28;20021;-92
2023/07/15 01:07:07;;;;;;;6.28;3.70;;;;;;;20.30;81.70;100225.31;5068182;28;20024;-92
2023/07/15 01:09:34;;;;;;;6.32;3.33;;;;;;;20.27;81.40;100231.94;5072687;28;20032;-92
2023/07/15 01:11:59;;;;;;;4.72;3.33;;;;;;;20.25;81.80;100235.22;5064520;28;20032;-93
2023/07/15 01:14:28;;;;;;;6.53;3.65;;;;;;;20.28;80.93;100224.97;5062730;28;20032;-92
2023/07/15 01:16:53;;;;;;;5.47;2.83;;;;;;;20.30;82.19;100231.81;5064074;28;20025;-93
2023/07/15 01:19:19;;;;;;;6.75;2.85;;;;;;;20.26;80.95;100225.47;5064610;28;20028;-92
2023/07/15 01:21:50;;;;;;;4.40;3.13;;;;;;;20.24;81.21;100232.88;5062019;28;20505;-92
2023/07/15 01:24:17;;;;;;;5.28;2.90;;;;;;;20.22;81.29;100218.31;5058409;28;20553;-92
2023/07/15 01:26:42;;;;;;;6.35;2.83;;;;;;;20.18;80.79;100220.50;5063652;28;20025;-92
2023/07/15 01:29:08;;;;;;;6.03;2.95;;;;;;;20.23;81.92;100236.94;5067603;28;20055;-92
2023/07/15 01:31:34;;;;;;;6.63;3.08;;;;;;;20.22;79.76;100239.00;5063907;28;20968;-93
2023/07/15 01:33:59;;;;;;;5.82;3.00;;;;;;;20.21;80.45;100239.47;5071025;28;20503;-92
2023/07/15 01:36:26;;;;;;;6.43;2.97;;;;;;;20.19;79.86;100239.13;5071264;28;20029;-92
2023/07/15 01:38:52;;;;;;;3.42;2.72;;;;;;;20.19;80.69;100236.28;5058990;28;20552;-92
2023/07/15 01:41:17;;;;;;;5.95;2.92;;;;;;;20.18;80.00;100231.88;5063292;28;20123;-92
2023/07/15 01:43:43;;;;;;;5.03;3.10;;;;;;;20.18;79.12;100229.81;5065887;28;20032;-91
2023/07/15 01:46:08;;;;;;;5.13;3.15;;;;;;;20.30;77.01;100236.69;5065042;28;20032;-91
2023/07/15 01:48:35;;;;;;;4.18;2.75;;;;;;;20.27;76.18;100231.94;5067393;28;20092;-92
2023/07/15 01:51:00;;;;;;;4.53;2.90;;;;;;;20.31;76.31;100229.75;5079606;28;21079;-91
2023/07/15 01:53:26;;;;;;;3.25;2.55;;;;;;;20.28;78.47;100224.97;5066534;28;20111;-91
2023/07/15 01:55:51;;;;;;;3.90;2.88;;;;;;;20.27;75.55;100232.72;5062969;28;20052;-91
2023/07/15 01:58:16;;;;;;;6.65;2.55;;;;;;;20.24;77.68;100232.88;5063636;28;20480;-91
2023/07/15 02:00:42;;;;;;;6.05;2.80;;;;;;;20.23;77.25;100228.44;5066426;28;20035;-91
2023/07/15 02:03:08;;;;;;;6.63;2.85;;;;;;;20.22;75.30;100224.78;5066273;28;20032;-91
2023/07/15 02:05:34;;;;;;;8.13;2.58;;;;;;;20.21;77.57;100233.78;5068561;28;20035;-91
2023/07/15 02:07:59;;;;;;;3.30;2.53;;;;;;;20.17;77.84;100227.41;5067680;28;20028;-91
2023/07/15 02:10:24;;;;;;;3.60;2.92;;;;;;;20.17;76.05;100233.91;5066964;28;20024;-91
2023/07/15 02:12:50;;;;;;;3.92;2.55;;;;;;;20.15;77.45;100241.28;5063430;28;20130;-90
2023/07/15 02:15:15;;;;;;;5.90;2.97;;;;;;;20.18;76.91;100231.88;5065606;28;20604;-92
2023/07/15 02:17:43;;;;;;;3.67;2.70;;;;;;;20.15;78.37;100230.72;5067931;28;20063;-91
2023/07/15 02:20:09;;;;;;;6.50;2.70;;;;;;;20.10;75.78;100232.09;5071129;28;20020;-92
2023/07/15 02:22:34;;;;;;;5.60;3.15;;;;;;;20.12;76.15;100219.50;5067273;28;20032;-91
2023/07/15 02:25:00;;;;;;;7.55;3.22;;;;;;;20.12;76.03;100222.34;5071935;28;20378;-92
2023/07/15 02:27:25;;;;;;;4.70;2.92;;;;;;;20.09;76.68;100221.19;5071168;28;20404;-91
2023/07/15 02:29:51;;;;;;;8.52;3.17;;;;;;;20.08;77.18;100226.09;5072652;28;20043;-92
2023/07/15 02:32:39;;;;;;;4.97;2.47;;;;;;;20.06;77.78;100222.91;5071492;28;20093;-92
2023/07/15 02:35:09;;;;;;;4.00;2.92;;;;;;;20.03;78.50;100229.53;5067899;28;20032;-91
2023/07/15 02:37:38;;;;;;;3.90;3.30;;;;;;;19.97;77.05;100220.00;5068957;28;20046;-91
2023/07/15 02:40:04;;;;;;;5.28;2.80;;;;;;;20.00;76.99;100236.09;5052196;28;20013;-91
2023/07/15 02:42:33;;;;;;;4.53;3.28;;;;;;;19.95;77.93;100233.88;5062964;28;20029;-92
2023/07/15 02:45:00;;;;;;;3.20;2.63;;;;;;;19.90;77.47;100231.59;5067258;28;20059;-92
2023/07/15 02:47:26;;;;;;;7.75;2.47;;;;;;;19.93;78.81;100253.41;5064835;28;20033;-91
2023/07/15 02:49:51;;;;;;;5.22;2.67;;;;;;;19.93;78.88;100246.94;5065452;28;20040;-92
2023/07/15 02:52:17;;;;;;;4.95;3.63;;;;;;;19.87;78.39;100247.50;5060106;28;20041;-92
2023/07/15 02:54:43;;;;;;;4.78;2.70;;;;;;;19.85;79.27;100238.66;5065242;28;20048;-93
2023/07/15 02:57:08;;;;;;;5.07;3.25;;;;;;;19.81;78.65;100240.03;5065391;28;21085;-92
2023/07/15 02:59:34;;;;;;;5.43;2.50;;;;;;;19.81;79.87;100240.03;5066237;28;20450;-92
2023/07/15 03:02:00;;;;;;;4.38;2.95;;;;;;;19.78;79.68;100243.78;5068131;28;20208;-92
2023/07/15 03:04:26;;;;;;;4.00;2.60;;;;;;;19.68;80.60;100243.66;5079478;28;20036;-92
2023/07/15 03:06:55;;;;;;;4.45;2.63;;;;;;;19.70;79.78;100257.44;5084458;28;20024;-92
2023/07/15 03:09:21;;;;;;;5.05;2.90;;;;;;;19.73;78.74;100250.03;5066129;28;20024;-92
2023/07/15 03:11:46;;;;;;;7.28;3.55;;;;;;;19.72;78.68;100251.31;5072061;28;20036;-91
2023/07/15 03:14:12;;;;;;;3.88;3.15;;;;;;;19.72;79.46;100248.47;5063195;28;20071;-92
2023/07/15 03:16:37;;;;;;;4.18;2.67;;;;;;;19.67;79.41;100247.75;5065841;28;20025;-92
2023/07/15 03:19:03;;;;;;;4.85;2.65;;;;;;;19.64;80.04;100242.97;5057774;28;20328;-92
2023/07/15 03:21:28;;;;;;;4.78;3.17;;;;;;;19.67;78.99;100247.75;5058626;28;20032;-92
2023/07/15 03:23:54;;;;;;;7.85;3.25;;;;;;;19.62;79.17;100244.69;5058537;28;20033;-92
2023/07/15 03:26:19;;;;;;;3.58;2.15;;;;;;;19.62;79.38;100245.47;5055307;28;20098;-92
2023/07/15 03:28:45;;;;;;;6.75;3.28;;;;;;;19.58;79.52;100244.78;5067558;28;20028;-92
2023/07/15 03:31:10;;;;;;;4.90;3.00;;;;;;;19.60;80.27;100252.88;5058476;28;20125;-91
2023/07/15 03:33:36;;;;;;;5.18;3.30;;;;;;;19.56;80.46;100263.53;5063943;28;20090;-91
2023/07/15 03:36:03;;;;;;;4.40;2.67;;;;;;;19.52;81.19;100263.66;5062419;28;20394;-92
2023/07/15 03:38:29;;;;;;;5.03;2.70;;;;;;;19.53;80.37;100253.91;5067394;28;20039;-91
2023/07/15 03:40:54;;;;;;;4.35;3.08;;;;;;;19.50;81.31;100255.59;5064173;28;20763;-92
2023/07/15 03:43:20;;;;;;;4.60;2.78;;;;;;;19.50;81.95;100252.75;5064120;28;20165;-92
2023/07/15 03:45:46;;;;;;;6.03;2.88;;;;;;;19.40;82.39;100247.44;5067265;28;20089;-92
2023/07/15 03:48:11;;;;;;;3.78;2.70;;;;;;;19.36;81.68;100241.09;5062973;28;20084;-91
2023/07/15 03:50:37;;;;;;;5.00;2.97;;;;;;;19.24;81.52;100217.91;5079151;28;20093;-91
2023/07/15 03:53:03;;;;;;;5.57;3.20;;;;;;;19.42;81.91;100242.09;5065283;28;20033;-91
2023/07/15 03:55:29;;;;;;;4.47;2.67;;;;;;;19.46;81.78;100239.94;5066397;28;20043;-91
2023/07/15 03:57:55;;;;;;;3.65;2.60;;;;;;;19.45;82.49;100241.19;5065209;28;20033;-91
2023/07/15 04:00:21;;;;;;;5.40;2.72;;;;;;;19.41;82.26;100246.19;5065517;28;20435;-91
2023/07/15 04:02:49;;;;;;;3.20;2.50;;;;;;;19.43;82.00;100250.13;5065463;28;20051;-91
2023/07/15 04:05:15;;;;;;;5.80;3.15;;;;;;;19.36;82.31;100249.59;5063799;28;20056;-91
2023/07/15 04:07:41;;;;;;;6.22;2.95;;;;;;;19.30;82.54;100261.50;5060556;28;20074;-91
2023/07/15 04:10:06;;;;;;;5.18;2.70;;;;;;;19.38;83.04;100258.44;5065638;28;20497;-92
2023/07/15 04:12:32;;;;;;;3.75;2.80;;;;;;;19.25;82.92;100256.41;5063220;28;20101;-91
2023/07/15 04:14:57;;;;;;;7.18;3.03;;;;;;;19.27;83.90;100264.47;5059104;28;20047;-91
2023/07/15 04:17:23;;;;;;;6.22;2.78;;;;;;;19.22;84.46;100256.50;5062084;28;20455;-92
2023/07/15 04:19:48;;;;;;;4.57;2.92;;;;;;;19.28;83.73;100261.16;5068203;28;20871;-91
2023/07/15 04:22:14;;;;;;;5.40;2.95;;;;;;;19.23;83.63;100253.22;5065853;28;20033;-90
2023/07/15 04:24:39;;;;;;;6.63;2.50;;;;;;;19.22;84.17;100257.28;5067907;28;20480;-91
2023/07/15 04:27:05;;;;;;;5.10;2.80;;;;;;;19.34;84.11;100252.09;5067971;28;20043;-90
2023/07/15 04:29:30;;;;;;;3.97;2.47;;;;;;;19.36;84.04;100255.28;5065574;28;20053;-90
2023/07/15 04:31:56;;;;;;;5.25;3.13;;;;;;;19.32;84.47;100257.44;5066564;28;20032;-91
2023/07/15 04:34:22;;;;;;;4.45;2.72;;;;;;;19.28;83.91;100266.03;5062037;28;20071;-91
2023/07/15 04:36:47;;;;;;;2.60;2.20;;;;;;;19.28;85.05;100275.34;5066863;28;20579;-91
2023/07/15 04:39:12;;;;;;;4.03;3.08;;;;;;;19.22;84.89;100268.63;5067623;28;20082;-90
2023/07/15 04:41:38;;;;;;;4.90;3.13;;;;;;;19.33;84.77;100276.03;5067203;28;20063;-90
2023/07/15 04:44:03;;;;;;;3.33;3.03;;;;;;;19.28;84.25;100281.00;5060034;28;20079;-92
2023/07/15 04:46:30;;;;;;;5.43;2.90;;;;;;;19.29;84.63;100288.28;5060942;28;20027;-91
2023/07/15 04:48:55;;;;;;;4.18;2.55;;;;;;;19.29;84.08;100273.31;5064673;28;20113;-91
2023/07/15 04:51:20;;;;;;;4.45;2.65;;;;;;;19.27;85.16;100276.59;5062048;28;20484;-92
2023/07/15 04:53:46;;;;;;;6.13;3.10;;;;;;;19.21;85.25;100278.41;5058233;28;20059;-91
2023/07/15 04:56:11;;;;;;;5.43;3.50;;;;;;;19.26;84.71;100271.38;5061710;28;20028;-91
2023/07/15 04:58:38;;;;;;;5.07;3.55;;;;;;;19.27;84.53;100275.81;5064410;28;20036;-90
2023/07/15 05:01:03;;;;;;;4.30;3.03;;;;;;;19.25;84.64;100279.09;5061406;28;20032;-91
2023/07/15 05:03:30;;;;;;;3.75;3.03;;;;;;;19.28;84.85;100283.84;5059967;28;20046;-91
2023/07/15 05:05:55;;;;;;;4.53;2.67;;;;;;;19.39;84.48;100286.34;5081164;28;20472;-92
2023/07/15 05:08:22;;;;;;;5.75;3.25;;;;;;;19.36;84.82;100277.97;5064234;28;20086;-91
2023/07/15 05:10:48;;;;;;;5.53;2.85;;;;;;;19.41;85.00;100280.22;5063856;28;20064;-91
2023/07/15 05:13:15;;;;;;;6.63;3.42;;;;;;;19.43;84.67;100289.88;5060820;28;20472;-91
2023/07/15 05:15:41;;;;;;;4.50;2.53;;;;;;;19.45;84.82;100275.25;5064543;28;20029;-92
2023/07/15 05:18:07;;;;;;;3.10;2.42;;;;;;;19.51;84.66;100290.44;5063844;28;20033;-90
2023/07/15 05:20:33;;;;;;;2.63;2.25;;;;;;;19.51;86.08;100284.78;5059614;28;20106;-91
2023/07/15 05:23:00;;;;;;;5.03;2.85;;;;;;;19.49;86.12;100281.59;5058826;28;20484;-91
2023/07/15 05:25:26;;;;;;;5.47;3.75;;;;;;;19.58;86.21;100290.22;5059614;28;20063;-91
2023/07/15 05:27:52;;;;;;;5.20;3.28;;;;;;;19.72;86.70;100288.22;5062971;28;21464;-91
2023/07/15 05:30:19;;;;;;;5.30;2.80;;;;;;;19.73;84.37;100299.09;5063979;28;20033;-92
2023/07/15 05:32:44;;;;;;;14.63;3.22;;;;;;;19.80;85.35;100309.44;5058980;28;20488;-92
2023/07/15 05:35:09;;;;;;;6.97;3.30;;;;;;;19.83;85.85;100300.00;5062346;28;20040;-92
2023/07/15 05:37:35;;;;;;;3.42;2.63;;;;;;;19.88;86.15;100307.94;5062217;28;20056;-91
2023/07/15 05:40:00;;;;;;;3.88;2.53;;;;;;;19.93;84.64;100303.75;5060937;28;20477;-91
2023/07/15 05:42:26;;;;;;;4.20;3.42;;;;;;;20.02;85.46;100307.47;5063572;28;20358;-91
2023/07/15 05:44:51;;;;;;;3.33;2.70;;;;;;;20.01;84.22;100307.94;5062627;28;20035;-92
2023/07/15 05:47:16;;;;;;;6.18;3.28;;;;;;;20.14;84.01;100310.75;5065563;28;20030;-91
2023/07/15 05:49:42;;;;;;;5.32;3.58;;;;;;;20.26;84.87;100318.44;5056335;28;20017;-92
2023/07/15 05:52:07;;;;;;;6.22;3.30;;;;;;;20.30;83.18;100311.38;5064774;28;20037;-92
2023/07/15 05:54:33;;;;;;;7.10;3.58;;;;;;;20.27;83.09;100317.97;5078596;28;21290;-93
2023/07/15 05:56:58;;;;;;;6.20;3.22;;;;;;;20.42;82.98;100311.81;5058800;28;20040;-92
2023/07/15 05:59:24;;;;;;;5.10;3.00;;;;;;;20.49;83.21;100317.22;5063799;28;20472;-92
2023/07/15 06:01:49;;;;;;;3.90;2.78;;;;;;;20.45;83.92;100311.69;5085614;28;21303;-92
2023/07/15 06:04:15;;;;;;;4.70;2.83;;;;;;;20.40;84.32;100317.94;5065298;28;20062;-91
2023/07/15 06:06:40;;;;;;;5.78;2.95;;;;;;;20.50;83.63;100316.75;5063149;28;20492;-92
2023/07/15 06:09:06;;;;;;;3.83;3.10;;;;;;;20.61;86.43;100309.94;5064027;28;20047;-92
2023/07/15 06:11:32;;;;;;;3.22;2.75;;;;;;;20.68;86.31;100313.31;5061658;28;20033;-92
2023/07/15 06:14:00;;;;;;;7.28;3.35;;;;;;;20.69;84.18;100320.59;5062633;28;20523;-92
2023/07/15 06:16:26;;;;;;;3.97;2.67;;;;;;;20.65;83.08;100316.28;5062080;28;20035;-92
2023/07/15 06:18:52;;;;;;;4.63;2.72;;;;;;;20.84;84.86;100320.84;5065471;28;20028;-92
2023/07/15 06:21:17;;;;;;;8.10;3.50;;;;;;;20.94;85.09;100318.09;5063337;28;20420;-91
2023/07/15 06:23:42;;;;;;;3.75;2.70;;;;;;;20.94;84.71;100309.56;5067549;28;20031;-92
2023/07/15 06:26:08;;;;;;;4.80;2.75;;;;;;;20.85;83.38;100304.56;5066330;28;20492;-91
2023/07/15 06:28:33;;;;;;;5.47;2.45;;;;;;;20.91;84.88;100314.91;5080533;28;20020;-92
2023/07/15 06:31:03;;;;;;;4.18;3.10;;;;;;;20.97;86.59;100305.78;5065446;28;20115;-91
2023/07/15 06:33:29;;;;;;;5.95;3.42;;;;;;;20.96;85.54;100309.88;5062670;28;20497;-91
2023/07/15 06:35:55;;;;;;;5.72;3.53;;;;;;;21.05;86.18;100307.09;5070342;28;20078;-91
2023/07/15 06:38:20;;;;;;;4.18;3.17;;;;;;;21.11;86.89;100310.94;5061274;28;20024;-91
2023/07/15 06:40:45;;;;;;;4.53;3.17;;;;;;;21.09;86.59;100319.13;5064771;28;20435;-92
2023/07/15 06:43:11;;;;;;;7.57;3.28;;;;;;;21.30;87.19;100318.31;5061513;28;20025;-92
2023/07/15 06:45:36;;;;;;;5.70;2.38;;;;;;;21.24;87.43;100319.38;5062108;28;20056;-93
2023/07/15 06:48:02;;;;;;;4.38;2.90;;;;;;;21.31;88.00;100319.91;5063036;28;20112;-93
2023/07/15 06:50:27;;;;;;;4.82;3.35;;;;;;;21.40;87.58;100321.19;5065575;28;20056;-93
2023/07/15 06:52:53;;;;;;;6.30;2.78;;;;;;;21.40;87.07;100312.66;5065139;28;20040;-92
2023/07/15 06:55:18;;;;;;;7.75;2.97;;;;;;;21.59;88.26;100319.25;5059991;28;20071;-90
2023/07/15 06:57:44;;;;;;;4.90;3.08;;;;;;;21.66;90.22;100311.22;5063536;28;20033;-88
2023/07/15 07:00:10;;;;;;;7.88;2.95;;;;;;;21.69;88.99;100312.34;5077767;28;20121;-89
2023/07/15 07:02:35;;;;;;;4.18;2.53;;;;;;;21.67;89.37;100324.22;5066545;28;20070;-90
2023/07/15 07:05:00;;;;;;;6.45;3.10;;;;;;;21.72;89.60;100326.44;5065029;28;20032;-89
2023/07/15 07:07:26;;;;;;;4.00;2.72;;;;;;;21.70;88.81;100317.56;5060246;28;20040;-87
2023/07/15 07:09:51;;;;;;;5.03;3.20;;;;;;;21.92;88.68;100313.84;5064143;28;20024;-86
2023/07/15 07:12:17;;;;;;;5.15;3.30;;;;;;;21.86;88.65;100313.69;5059428;28;20714;-79
2023/07/15 07:14:44;;;;;;;6.13;2.95;;;;;;;21.86;89.99;100312.88;5057634;28;20025;-87
2023/07/15 07:17:10;;;;;;;5.13;2.53;;;;;;;21.99;89.49;100324.13;5052443;28;20028;-87
2023/07/15 07:19:36;;;;;;;5.88;2.63;;;;;;;22.23;91.71;100310.13;5061816;28;20512;-87
2023/07/15 07:22:01;;;;;;;4.57;3.53;;;;;;;22.27;90.43;100316.47;5059155;28;20035;-83
2023/07/15 07:24:27;;;;;;;5.30;3.58;;;;;;;22.36;90.24;100305.06;5062434;28;20481;-83
2023/07/15 07:26:52;;;;;;;3.95;2.40;;;;;;;22.67;89.09;100313.47;5063788;28;20028;-83
2023/07/15 07:29:17;;;;;;;5.78;2.55;;;;;;;22.58;88.86;100316.34;5058271;28;20174;-83
2023/07/15 07:31:43;;;;;;;6.65;3.50;;;;;;;22.60;89.04;100313.81;5061412;28;20561;-82
2023/07/15 07:34:08;;;;;;;3.42;2.10;;;;;;;22.45;89.91;100316.50;5061186;28;20024;-84
2023/07/15 07:36:34;;;;;;;11.27;2.92;;;;;;;22.31;90.22;100322.81;5061163;28;20551;-85
2023/07/15 07:38:59;;;;;;;3.58;2.40;;;;;;;22.39;90.41;100338.38;5063799;28;20070;-85
2023/07/15 07:41:24;;;;;;;3.83;1.80;;;;;;;22.39;90.65;100338.38;5063787;28;20033;-83
2023/07/15 07:43:50;;;;;;;3.40;1.90;;;;;;;22.39;88.65;100338.38;5061093;28;20032;-81
2023/07/15 07:46:15;;;;;;;3.60;1.92;;;;;;;22.33;90.04;100340.25;5053866;28;20536;-81
2023/07/15 07:48:40;;;;;;;3.63;2.10;;;;;;;22.47;89.01;100347.38;5057458;28;20426;-82
2023/07/15 07:51:07;;;;;;;6.30;2.20;;;;;;;22.62;89.27;100354.06;5056208;28;20043;-82
2023/07/15 07:53:32;;;;;;;5.15;1.90;;;;;;;22.57;89.92;100354.69;5064017;28;20025;-77
2023/07/15 07:55:58;;;;;;;3.05;2.00;;;;;;;22.82;90.33;100358.50;5052758;28;20043;-77
2023/07/15 07:58:23;;;;;;;4.80;2.53;;;;;;;23.05;89.80;100357.88;5058151;28;20032;-77
2023/07/15 08:00:49;;;;;;;2.78;2.20;;;;;;;23.06;88.84;100347.25;5060067;28;20336;-77
2023/07/15 08:03:14;;;;;;;3.60;1.90;;;;;;;23.21;88.02;100350.22;5057421;28;20028;-78
2023/07/15 08:05:45;;;;;;;4.22;2.50;;;;;;;23.36;87.27;100341.78;5062703;28;20042;-77
2023/07/15 08:08:11;;;;;;;4.00;1.98;;;;;;;23.46;87.22;100347.00;5056754;28;20035;-77
2023/07/15 08:10:36;;;;;;;2.95;2.08;;;;;;;23.27;87.67;100343.38;5058834;28;20028;-77
2023/07/15 08:13:03;;;;;;;4.25;2.42;;;;;;;23.25;87.49;100354.50;5062421;28;20078;-77
2023/07/15 08:15:29;;;;;;;3.33;1.80;;;;;;;23.32;89.68;100356.25;5057585;28;20021;-77
2023/07/15 08:17:55;;;;;;;4.25;2.63;;;;;;;23.36;90.20;100356.06;5061402;28;20025;-77
2023/07/15 08:20:20;;;;;;;4.80;2.55;;;;;;;23.18;90.93;100357.69;5052230;28;20213;-77
2023/07/15 08:22:46;;;;;;;4.28;2.03;;;;;;;23.14;89.96;100368.47;5056435;28;20032;-77
2023/07/15 08:25:11;;;;;;;4.60;2.67;;;;;;;23.40;88.79;100373.81;5062110;28;20058;-77
2023/07/15 08:27:37;;;;;;;4.75;2.10;;;;;;;23.16;90.28;100359.44;5060114;28;20097;-77
2023/07/15 08:30:03;;;;;;;5.88;2.25;;;;;;;23.23;89.72;100365.63;5061973;28;20833;-80
2023/07/15 08:32:29;;;;;;;4.30;2.30;;;;;;;23.15;88.28;100364.38;5060027;28;20550;-80
2023/07/15 08:34:58;;;;;;;7.88;2.92;;;;;;;23.05;88.88;100366.44;5061656;28;20025;-79
2023/07/15 08:37:24;;;;;;;3.05;2.42;;;;;;;23.05;89.69;100366.44;5068712;28;20036;-78
2023/07/15 08:39:49;;;;;;;3.83;1.88;;;;;;;23.10;89.66;100367.84;5059904;28;20899;-78
2023/07/15 08:42:15;;;;;;;3.63;2.40;;;;;;;23.10;90.21;100357.22;5054810;28;20392;-78
2023/07/15 08:44:41;;;;;;;11.00;2.70;;;;;;;23.14;90.02;100368.47;5055973;28;20035;-78
2023/07/15 08:47:07;;;;;;;4.43;2.38;;;;;;;23.06;89.29;100367.22;5046914;28;20036;-78
2023/07/15 08:49:38;;;;;;;8.95;2.90;;;;;;;23.04;89.33;100370.56;5058939;28;20411;-77
2023/07/15 08:52:05;;;;;;;4.97;2.17;;;;;;;23.08;89.57;100364.69;5057703;28;20517;-78
2023/07/15 08:54:32;;;;;;;2.85;2.38;;;;;;;23.16;89.23;100371.66;5059158;28;20037;-79
2023/07/15 08:56:57;;;;;;;3.97;2.40;;;;;;;23.22;90.17;100357.53;5052921;28;20101;-79
2023/07/15 08:59:23;;;;;;;4.75;2.40;;;;;;;23.46;89.31;100358.41;5054827;28;20120;-77
2023/07/15 09:01:49;;;;;;;3.55;1.95;;;;;;;23.57;89.17;100360.78;5056979;28;20182;-77
2023/07/15 09:04:14;;;;;;;3.92;2.03;;;;;;;23.95;87.17;100365.09;5058963;28;20032;-76
2023/07/15 09:06:40;;;;;;;2.80;2.20;;;;;;;23.93;85.37;100370.50;5052672;28;20042;-76
2023/07/15 09:09:06;;;;;;;4.38;2.42;;;;;;;23.73;87.57;100363.25;5058610;28;20064;-77
2023/07/15 09:11:40;;;;;;;2.13;1.80;;;;;;;23.78;87.44;100369.59;5058750;28;20693;-77
2023/07/15 09:14:15;;;;;;;2.33;1.85;;;;;;;23.74;86.11;100384.84;5052368;28;20025;-77
2023/07/15 09:16:41;;;;;;;4.70;1.95;;;;;;;23.63;88.51;100386.63;5055055;28;20032;-77
2023/07/15 09:19:11;;;;;;;2.63;1.90;;;;;;;23.92;85.62;100378.28;5061779;28;20024;-77
2023/07/15 09:21:36;;;;;;;4.50;1.95;;;;;;;24.02;85.13;100379.03;5069530;28;22956;-76
2023/07/15 09:24:02;;;;;;;4.75;2.33;;;;;;;23.80;87.31;100384.22;5063262;28;20103;-77
2023/07/15 09:26:29;;;;;;;5.88;2.05;;;;;;;23.82;87.23;100375.94;5056015;28;20033;-77
2023/07/15 09:28:54;;;;;;;2.28;2.08;;;;;;;23.70;86.59;100387.06;5053925;28;20476;-76
2023/07/15 09:31:26;;;;;;;8.00;2.50;;;;;;;23.87;86.95;100383.88;5063886;28;20032;-77
2023/07/15 09:34:02;;;;;;;4.38;2.08;;;;;;;23.89;86.83;100379.25;5056276;28;20035;-77
2023/07/15 09:36:31;;;;;;;2.40;1.85;;;;;;;24.30;85.30;100385.38;5054882;28;20043;-77
2023/07/15 09:39:22;;;;;;;2.10;1.90;;;;;;;24.72;83.51;100401.66;5052747;28;20493;-77
2023/07/15 09:42:07;;;;;;;2.30;2.10;;;;;;;24.21;83.77;100396.09;5051553;28;20040;-77
2023/07/15 09:44:45;;;;;;;3.08;1.88;;;;;;;24.11;84.91;100392.50;5054653;28;20747;-77
2023/07/15 09:47:10;;;;;;;3.05;1.88;;;;;;;24.04;84.21;100402.22;5056308;28;20522;-77
2023/07/15 09:49:36;;;;;;;2.80;2.03;;;;;;;24.09;83.63;100401.53;5054812;28;20028;-76
2023/07/15 09:52:04;;;;;;;2.58;1.85;;;;;;;24.22;83.10;100397.66;5069833;28;20029;-77
2023/07/15 09:54:32;;;;;;;1.92;1.73;;;;;;;24.39;81.15;100395.19;5059583;28;20132;-77
2023/07/15 09:57:03;;;;;;;3.65;1.75;;;;;;;24.49;80.60;100400.38;5061255;28;20136;-77
2023/07/15 09:59:41;;;;;;;2.88;1.58;;;;;;;24.52;77.51;100399.44;5062672;28;20120;-77
2023/07/15 10:02:34;;;;;;;1.58;1.48;;;;;;;24.63;77.93;100393.16;5058518;28;20025;-77
2023/07/15 10:05:03;;;;;;;;;;;;;;;24.52;78.81;100399.44;5062605;28;20028;-77
2023/07/15 10:07:29;;;;;;;1.50;1.40;;;;;;;24.35;81.90;100396.16;5064353;28;20051;-78
2023/07/15 10:09:58;;;;;;;2.40;1.60;;;;;;;24.23;78.62;100400.06;5081304;28;20056;-77
2023/07/15 10:12:29;;;;;;;2.67;2.00;;;;;;;24.25;78.30;100405.28;5059519;28;20036;-78
2023/07/15 10:14:55;;;;;;;2.53;1.70;;;;;;;24.29;80.16;100403.84;5063577;28;20447;-77
2023/07/15 10:17:33;;;;;;;2.88;1.80;;;;;;;24.51;80.76;100412.13;5079293;28;20496;-77
2023/07/15 10:20:05;;;;;;;3.22;1.58;;;;;;;24.54;82.21;100398.94;5065690;28;20031;-77
2023/07/15 10:22:34;;;;;;;2.25;1.58;;;;;;;24.50;81.50;100396.28;5061908;28;20090;-77
2023/07/15 10:25:02;;;;;;;1.88;1.42;;;;;;;24.45;78.33;100394.03;5065342;28;20081;-77
2023/07/15 10:27:28;;;;;;;1.75;1.17;;;;;;;24.54;81.88;100385.44;5061815;28;20025;-77
2023/07/15 10:30:17;;;;;;;2.08;1.63;;;;;;;24.49;78.50;100400.38;5056859;28;20024;-77
2023/07/15 10:32:58;;;;;;;5.53;1.67;;;;;;;24.58;80.62;100401.59;5060289;28;20119;-77
2023/07/15 10:35:25;;;;;;;1.90;1.60;;;;;;;24.64;78.43;100388.22;5058946;28;20109;-78
2023/07/15 10:37:51;;;;;;;5.07;1.73;;;;;;;24.65;79.44;100395.53;5062911;28;20355;-77
2023/07/15 10:40:52;;;;;;;2.10;1.63;;;;;;;24.61;80.98;100386.34;5051954;28;20504;-78
2023/07/15 10:43:23;;;;;;;3.45;1.67;;;;;;;24.63;79.35;100395.22;5061939;28;20032;-77
2023/07/15 10:45:55;;;;;;;4.07;1.50;;;;;;;24.55;81.95;100392.72;5059438;28;20051;-78
2023/07/15 10:48:22;;;;;;;3.88;1.60;;;;;;;24.46;80.60;100389.91;5062230;28;20013;-78
2023/07/15 10:50:52;;;;;;;4.35;1.90;;;;;;;24.59;80.07;100397.47;5059139;28;20036;-77
2023/07/15 10:53:20;;;;;;;1.25;1.15;;;;;;;24.81;78.73;100402.88;5054185;28;20131;-77
2023/07/15 10:55:52;;;;;;;2.67;1.65;;;;;;;25.16;78.93;100383.00;5063320;28;20036;-77
2023/07/15 10:58:18;;;;;;;1.77;1.40;;;;;;;25.24;77.57;100389.97;5063448;28;20558;-77
2023/07/15 11:00:43;;;;;;;2.08;1.60;;;;;;;25.19;78.32;100381.22;5057323;28;20032;-77
2023/07/15 11:03:09;;;;;;;2.72;1.40;;;;;;;24.95;79.58;100390.69;5058189;28;20054;-78
2023/07/15 11:05:35;;;;;;;2.72;1.60;;;;;;;24.93;79.18;100391.16;5061949;28;20079;-78
2023/07/15 11:08:04;;;;;;;2.75;1.70;;;;;;;24.81;79.76;100385.69;5062440;28;20393;-80
2023/07/15 11:10:33;;;;;;;2.13;1.88;;;;;;;24.70;80.06;100383.41;5059970;28;20393;-77
2023/07/15 11:13:10;;;;;;;4.00;2.15;;;;;;;24.69;79.37;100390.41;5057945;28;20028;-80
2023/07/15 11:15:36;;;;;;;2.17;1.50;;;;;;;24.63;79.72;100387.44;5054372;28;20035;-81
2023/07/15 11:18:01;;;;;;;3.80;2.03;;;;;;;24.66;80.46;100386.44;5058933;28;20548;-81
2023/07/15 11:20:27;;;;;;;3.20;1.70;;;;;;;24.60;80.97;100379.81;5064706;28;20032;-82
2023/07/15 11:22:52;;;;;;;3.33;1.77;;;;;;;24.59;80.63;100368.88;5060960;28;20039;-81